createdAt,value
2023-05-05T00:01:23.261Z,14.20
2023-05-05T00:03:49.636Z,14.11
2023-05-05T00:06:15.970Z,14.02
2023-05-05T00:08:42.205Z,13.96
2023-05-05T00:11:08.483Z,13.85
2023-05-05T00:13:34.756Z,13.71
2023-05-05T00:16:01.046Z,13.63
2023-05-05T00:18:27.309Z,13.59
2023-05-05T00:20:53.606Z,13.53
2023-05-05T00:23:19.856Z,13.46
2023-05-05T00:25:46.179Z,13.39
2023-05-05T00:28:12.511Z,13.31
2023-05-05T00:30:38.774Z,13.30
2023-05-05T00:33:05.619Z,13.25
2023-05-05T00:35:31.947Z,13.17
2023-05-05T00:37:58.232Z,13.16
2023-05-05T00:40:24.598Z,13.11
2023-05-05T00:42:50.961Z,13.11
2023-05-05T00:45:17.275Z,13.04
2023-05-05T00:47:43.578Z,13.11
2023-05-05T00:50:09.970Z,13.05
2023-05-05T00:52:36.273Z,13.03
2023-05-05T00:55:02.507Z,13.03
2023-05-05T00:57:28.744Z,13.05
2023-05-05T00:59:54.970Z,13.01
2023-05-05T01:02:21.213Z,12.95
2023-05-05T01:04:47.524Z,12.90
2023-05-05T01:07:13.794Z,12.92
2023-05-05T01:09:40.053Z,12.92
2023-05-05T01:12:06.312Z,12.98
2023-05-05T01:14:32.643Z,13.08
2023-05-05T01:16:58.931Z,13.07
2023-05-05T01:19:25.208Z,13.14
2023-05-05T01:21:51.472Z,13.23
2023-05-05T01:24:17.740Z,13.29
2023-05-05T01:26:44.021Z,13.32
2023-05-05T01:29:10.278Z,13.35
2023-05-05T01:31:36.547Z,13.28
2023-05-05T01:34:02.795Z,13.29
2023-05-05T01:36:29.038Z,13.28
2023-05-05T01:38:55.326Z,13.29
2023-05-05T01:41:21.613Z,13.25
2023-05-05T01:43:47.860Z,13.21
2023-05-05T01:46:14.273Z,13.25
2023-05-05T01:48:42.317Z,13.27
2023-05-05T01:51:08.637Z,13.27
2023-05-05T01:53:34.943Z,13.28
2023-05-05T01:56:01.231Z,13.21
2023-05-05T01:58:27.490Z,13.06
2023-05-05T02:00:53.820Z,13.07
2023-05-05T02:03:20.382Z,13.05
2023-05-05T02:05:46.752Z,12.96
2023-05-05T02:08:13.052Z,12.94
2023-05-05T02:10:39.414Z,12.86
2023-05-05T02:13:05.779Z,12.92
2023-05-05T02:15:32.109Z,12.90
2023-05-05T02:17:58.365Z,12.94
2023-05-05T02:20:24.625Z,12.88
2023-05-05T02:22:50.920Z,12.82
2023-05-05T02:25:17.226Z,12.73
2023-05-05T02:27:43.535Z,12.54
2023-05-05T02:30:10.136Z,12.49
2023-05-05T02:32:36.674Z,12.29
2023-05-05T02:35:02.973Z,12.29
2023-05-05T02:37:29.229Z,12.31
2023-05-05T02:39:55.482Z,12.32
2023-05-05T02:42:21.763Z,12.40
2023-05-05T02:44:48.041Z,12.34
2023-05-05T02:47:14.278Z,12.36
2023-05-05T02:49:40.531Z,12.32
2023-05-05T02:52:06.792Z,12.29
2023-05-05T02:54:33.060Z,12.31
2023-05-05T02:56:59.343Z,12.30
2023-05-05T02:59:25.594Z,12.20
2023-05-05T03:01:51.933Z,12.25
2023-05-05T03:04:18.254Z,12.23
2023-05-05T03:06:44.506Z,12.24
2023-05-05T03:09:10.748Z,12.15
2023-05-05T03:11:37.000Z,12.22
2023-05-05T03:14:03.252Z,12.19
2023-05-05T03:16:29.509Z,12.22
2023-05-05T03:18:55.752Z,12.18
2023-05-05T03:21:21.983Z,12.19
2023-05-05T03:23:48.223Z,12.06
2023-05-05T03:26:14.474Z,12.04
2023-05-05T03:28:40.753Z,12.00
2023-05-05T03:31:07.025Z,12.02
2023-05-05T03:33:33.304Z,11.88
2023-05-05T03:35:59.572Z,11.85
2023-05-05T03:38:25.832Z,11.83
2023-05-05T03:40:52.082Z,11.88
2023-05-05T03:43:18.402Z,11.82
2023-05-05T03:45:44.784Z,11.81
2023-05-05T03:48:11.108Z,11.83
2023-05-05T03:50:37.396Z,11.80
2023-05-05T03:53:03.686Z,11.78
2023-05-05T03:55:29.940Z,11.89
2023-05-05T03:57:56.168Z,11.83
2023-05-05T04:00:22.402Z,11.86
2023-05-05T04:02:48.717Z,11.82
2023-05-05T04:05:15.072Z,11.96
2023-05-05T04:07:41.311Z,11.93
2023-05-05T04:10:07.751Z,11.94
2023-05-05T04:12:34.215Z,11.93
2023-05-05T04:15:00.527Z,11.89
2023-05-05T04:17:26.815Z,11.88
2023-05-05T04:19:53.091Z,12.03
2023-05-05T04:22:19.369Z,12.11
2023-05-05T04:24:45.612Z,12.12
2023-05-05T04:27:11.832Z,12.06
2023-05-05T04:29:38.138Z,11.96
2023-05-05T04:32:04.431Z,11.98
2023-05-05T04:34:30.680Z,12.04
2023-05-05T04:36:56.921Z,12.07
2023-05-05T04:39:23.182Z,12.04
2023-05-05T04:41:49.483Z,12.03
2023-05-05T04:44:15.730Z,11.98
2023-05-05T04:46:42.005Z,12.00
2023-05-05T04:49:08.387Z,12.01
2023-05-05T04:51:34.673Z,11.97
2023-05-05T04:54:00.947Z,11.93
2023-05-05T04:56:27.184Z,11.94
2023-05-05T04:58:53.449Z,11.94
2023-05-05T05:01:19.757Z,11.93
2023-05-05T05:03:46.255Z,11.93
2023-05-05T05:06:12.657Z,12.01
2023-05-05T05:08:38.965Z,11.98
2023-05-05T05:11:05.240Z,12.00
2023-05-05T05:13:31.479Z,11.97
2023-05-05T05:15:57.750Z,12.01
2023-05-05T05:18:24.812Z,12.12
2023-05-05T05:20:51.121Z,12.16
2023-05-05T05:23:17.382Z,12.28
2023-05-05T05:25:43.656Z,12.28
2023-05-05T05:28:10.991Z,12.34
2023-05-05T05:30:37.415Z,12.43
2023-05-05T05:33:03.744Z,12.45
2023-05-05T05:35:30.025Z,12.41
2023-05-05T05:37:56.283Z,12.50
2023-05-05T05:40:22.594Z,12.39
2023-05-05T05:42:48.867Z,12.41
2023-05-05T05:45:15.131Z,12.41
2023-05-05T05:47:41.452Z,12.50
2023-05-05T05:50:08.155Z,12.62
2023-05-05T05:52:34.811Z,12.76
2023-05-05T05:55:01.138Z,12.78
2023-05-05T05:57:27.400Z,12.85
2023-05-05T05:59:53.621Z,12.94
2023-05-05T06:02:19.895Z,12.97
2023-05-05T06:04:46.172Z,12.98
2023-05-05T06:07:12.461Z,12.96
2023-05-05T06:09:38.865Z,12.99
2023-05-05T06:12:05.124Z,13.03
2023-05-05T06:14:31.374Z,13.00
2023-05-05T06:16:57.626Z,12.97
2023-05-05T06:19:23.946Z,12.94
2023-05-05T06:21:50.264Z,12.99
2023-05-05T06:24:17.659Z,12.79
2023-05-05T06:26:43.919Z,12.92
2023-05-05T06:29:12.240Z,12.89
2023-05-05T06:31:38.767Z,13.06
2023-05-05T06:34:05.035Z,13.27
2023-05-05T06:36:31.340Z,13.45
2023-05-05T06:38:57.609Z,13.58
2023-05-05T06:41:23.852Z,13.59
2023-05-05T06:43:50.118Z,13.71
2023-05-05T06:46:16.403Z,13.93
2023-05-05T06:48:42.682Z,14.05
2023-05-05T06:51:08.941Z,14.25
2023-05-05T06:53:35.187Z,14.48
2023-05-05T06:56:01.459Z,14.72
2023-05-05T06:58:27.718Z,14.91
2023-05-05T07:00:54.032Z,15.14
2023-05-05T07:03:20.408Z,15.37
2023-05-05T07:05:46.740Z,15.51
2023-05-05T07:08:12.985Z,15.58
2023-05-05T07:10:39.294Z,15.86
2023-05-05T07:13:05.703Z,16.05
2023-05-05T07:15:31.971Z,16.22
2023-05-05T07:17:58.506Z,16.20
2023-05-05T07:20:25.034Z,15.99
2023-05-05T07:22:51.341Z,16.04
2023-05-05T07:25:17.660Z,16.20
2023-05-05T07:27:43.980Z,16.32
2023-05-05T07:30:14.062Z,16.34
2023-05-05T07:32:42.788Z,16.33
2023-05-05T07:35:09.120Z,16.53
2023-05-05T07:37:35.430Z,16.40
2023-05-05T07:40:01.710Z,16.51
2023-05-05T07:42:27.970Z,16.77
2023-05-05T07:44:54.205Z,16.87
2023-05-05T07:47:20.642Z,16.93
2023-05-05T07:49:46.980Z,17.09
2023-05-05T07:52:13.252Z,17.23
2023-05-05T07:54:39.894Z,16.90
2023-05-05T07:57:06.184Z,17.16
2023-05-05T07:59:32.436Z,17.24
2023-05-05T08:01:58.681Z,17.39
2023-05-05T08:04:24.960Z,17.48
2023-05-05T08:06:51.268Z,17.58
2023-05-05T08:09:17.559Z,17.63
2023-05-05T08:11:43.883Z,17.67
2023-05-05T08:14:10.131Z,17.42
2023-05-05T08:16:36.573Z,17.10
2023-05-05T08:19:02.951Z,17.09
2023-05-05T08:21:29.422Z,16.91
2023-05-05T08:23:55.970Z,16.98
2023-05-05T08:26:22.237Z,17.11
2023-05-05T08:28:48.463Z,17.12
2023-05-05T08:31:14.734Z,17.21
2023-05-05T08:33:41.083Z,17.31
2023-05-05T08:36:07.341Z,17.38
2023-05-05T08:38:33.713Z,17.52
2023-05-05T08:40:59.974Z,17.57
2023-05-05T08:43:26.225Z,17.35
2023-05-05T08:45:52.472Z,17.48
2023-05-05T08:48:18.733Z,17.59
2023-05-05T08:50:44.999Z,17.87
2023-05-05T08:53:11.262Z,18.11
2023-05-05T08:55:37.488Z,18.38
2023-05-05T08:58:03.734Z,18.50
2023-05-05T09:00:30.004Z,18.75
2023-05-05T09:02:56.574Z,18.93
2023-05-05T09:05:23.121Z,18.88
2023-05-05T09:07:49.381Z,18.75
2023-05-05T09:10:15.657Z,18.59
2023-05-05T09:12:42.053Z,18.71
2023-05-05T09:15:08.690Z,19.03
2023-05-05T09:17:35.193Z,19.16
2023-05-05T09:20:01.456Z,19.20
2023-05-05T09:22:27.752Z,19.36
2023-05-05T09:24:54.925Z,19.59
2023-05-05T09:27:21.220Z,19.73
2023-05-05T09:29:47.498Z,19.86
2023-05-05T09:32:13.744Z,20.02
2023-05-05T09:34:40.256Z,20.31
2023-05-05T09:37:06.629Z,20.55
2023-05-05T09:39:32.929Z,20.80
2023-05-05T09:41:59.168Z,20.05
2023-05-05T09:44:25.440Z,20.46
2023-05-05T09:46:51.766Z,20.67
2023-05-05T09:49:18.106Z,20.90
2023-05-05T09:51:44.355Z,20.82
2023-05-05T09:54:10.766Z,21.03
2023-05-05T09:56:37.012Z,21.20
2023-05-05T09:59:03.231Z,20.80
2023-05-05T10:01:29.552Z,21.05
2023-05-05T10:03:55.792Z,20.86
2023-05-05T10:06:22.046Z,20.99
2023-05-05T10:08:48.347Z,20.96
2023-05-05T10:11:14.577Z,20.82
2023-05-05T10:13:40.816Z,21.02
2023-05-05T10:16:07.077Z,21.24
2023-05-05T10:18:33.412Z,21.41
2023-05-05T10:20:59.696Z,21.65
2023-05-05T10:23:25.979Z,21.17
2023-05-05T10:25:52.246Z,21.18
2023-05-05T10:28:18.543Z,21.38
2023-05-05T10:30:44.896Z,21.23
2023-05-05T10:33:30.249Z,21.54
2023-05-05T10:35:57.368Z,21.90
2023-05-05T10:38:26.790Z,22.15
2023-05-05T10:40:53.225Z,22.15
2023-05-05T10:43:19.483Z,22.46
2023-05-05T10:45:45.805Z,22.48
2023-05-05T10:48:12.305Z,22.68
2023-05-05T10:50:38.669Z,22.65
2023-05-05T10:53:04.930Z,22.99
2023-05-05T10:55:31.496Z,22.75
2023-05-05T10:57:57.740Z,22.53
2023-05-05T11:00:23.979Z,22.60
2023-05-05T11:02:50.308Z,22.64
2023-05-05T11:05:16.607Z,22.78
2023-05-05T11:07:42.879Z,22.95
2023-05-05T11:10:09.288Z,23.09
2023-05-05T11:12:38.115Z,23.19
2023-05-05T11:15:05.148Z,23.29
2023-05-05T11:17:31.477Z,23.48
2023-05-05T11:19:57.769Z,23.77
2023-05-05T11:22:24.005Z,23.42
2023-05-05T11:24:50.373Z,23.90
2023-05-05T11:27:16.655Z,24.19
2023-05-05T11:29:42.992Z,24.40
2023-05-05T11:32:09.450Z,24.61
2023-05-05T11:34:35.717Z,24.47
2023-05-05T11:37:02.008Z,24.07
2023-05-05T11:39:28.252Z,23.79
2023-05-05T11:41:54.480Z,24.19
2023-05-05T11:44:20.745Z,24.09
2023-05-05T11:46:47.001Z,23.74
2023-05-05T11:49:13.261Z,24.13
2023-05-05T11:51:39.563Z,24.32
2023-05-05T11:54:05.857Z,23.98
2023-05-05T11:56:32.086Z,23.89
2023-05-05T11:58:58.326Z,24.12
2023-05-05T12:01:24.568Z,24.19
2023-05-05T12:03:50.986Z,23.77
2023-05-05T12:06:17.425Z,23.72
2023-05-05T12:08:43.690Z,23.77
2023-05-05T12:11:10.024Z,23.84
2023-05-05T12:13:36.325Z,23.80
2023-05-05T12:16:02.629Z,23.33
2023-05-05T12:18:28.931Z,23.62
2023-05-05T12:20:55.155Z,23.49
2023-05-05T12:23:21.434Z,23.56
2023-05-05T12:25:47.700Z,22.90
2023-05-05T12:28:13.952Z,22.60
2023-05-05T12:30:40.245Z,22.40
2023-05-05T12:33:06.749Z,22.88
2023-05-05T12:35:35.153Z,22.90
2023-05-05T12:38:01.430Z,22.91
2023-05-05T12:40:27.688Z,23.22
2023-05-05T12:42:53.981Z,23.00
2023-05-05T12:45:20.265Z,23.27
2023-05-05T12:47:47.862Z,23.31
2023-05-05T12:50:14.179Z,23.37
2023-05-05T12:52:40.477Z,23.40
2023-05-05T12:55:06.927Z,23.47
2023-05-05T12:57:33.336Z,23.45
2023-05-05T12:59:59.580Z,23.54
2023-05-05T13:02:25.978Z,23.93
2023-05-05T13:04:52.341Z,23.90
2023-05-05T13:07:18.719Z,23.84
2023-05-05T13:09:44.978Z,23.43
2023-05-05T13:12:11.228Z,23.03
2023-05-05T13:14:37.475Z,23.66
2023-05-05T13:17:03.829Z,24.19
2023-05-05T13:19:30.167Z,24.42
2023-05-05T13:21:56.457Z,24.36
2023-05-05T13:24:31.606Z,24.58
2023-05-05T13:27:01.081Z,24.31
2023-05-05T13:29:31.082Z,24.08
2023-05-05T13:31:57.931Z,24.00
2023-05-05T13:34:24.210Z,23.92
2023-05-05T13:36:50.523Z,23.72
2023-05-05T13:39:16.842Z,23.93
2023-05-05T13:41:43.084Z,24.05
2023-05-05T13:44:09.373Z,24.13
2023-05-05T13:46:35.646Z,24.40
2023-05-05T13:49:01.906Z,24.36
2023-05-05T13:51:28.208Z,24.16
2023-05-05T13:53:54.439Z,24.10
2023-05-05T13:56:20.714Z,23.80
2023-05-05T13:58:46.952Z,23.54
2023-05-05T14:01:13.318Z,23.45
2023-05-05T14:03:39.876Z,23.38
2023-05-05T14:06:06.224Z,23.06
2023-05-05T14:08:32.473Z,23.31
2023-05-05T14:10:58.711Z,23.19
2023-05-05T14:13:24.961Z,23.57
2023-05-05T14:15:51.188Z,24.02
2023-05-05T14:18:17.456Z,24.03
2023-05-05T14:20:43.719Z,23.59
2023-05-05T14:23:09.980Z,23.59
2023-05-05T14:25:36.227Z,23.83
2023-05-05T14:28:02.584Z,24.06
2023-05-05T14:30:28.972Z,23.57
2023-05-05T14:32:55.281Z,23.92
2023-05-05T14:35:21.553Z,23.28
2023-05-05T14:37:47.803Z,22.73
2023-05-05T14:40:14.183Z,23.15
2023-05-05T14:42:40.442Z,23.57
2023-05-05T14:45:06.922Z,23.77
2023-05-05T14:47:33.417Z,23.96
2023-05-05T14:49:59.662Z,24.21
2023-05-05T14:52:25.937Z,23.96
2023-05-05T14:54:52.192Z,24.05
2023-05-05T14:57:18.462Z,24.02
2023-05-05T14:59:44.713Z,23.65
2023-05-05T15:02:10.981Z,23.97
2023-05-05T15:04:37.216Z,24.19
2023-05-05T15:07:03.492Z,24.19
2023-05-05T15:09:29.755Z,24.31
2023-05-05T15:11:55.989Z,24.16
2023-05-05T15:14:22.247Z,23.75
2023-05-05T15:16:48.516Z,23.87
2023-05-05T15:19:14.778Z,24.09
2023-05-05T15:21:41.048Z,23.75
2023-05-05T15:24:07.330Z,23.72
2023-05-05T15:26:33.630Z,23.87
2023-05-05T15:28:59.865Z,23.61
2023-05-05T15:31:26.139Z,23.23
2023-05-05T15:33:52.454Z,23.26
2023-05-05T15:36:18.700Z,23.10
2023-05-05T15:38:44.980Z,22.93
2023-05-05T15:41:11.300Z,22.62
2023-05-05T15:43:37.559Z,22.79
2023-05-05T15:46:03.790Z,22.75
2023-05-05T15:48:30.034Z,23.00
2023-05-05T15:50:56.313Z,23.09
2023-05-05T15:53:22.554Z,22.68
2023-05-05T15:55:48.780Z,22.19
2023-05-05T15:58:15.015Z,22.56
2023-05-05T16:00:41.276Z,22.69
2023-05-05T16:03:07.631Z,22.71
2023-05-05T16:05:33.951Z,22.58
2023-05-05T16:08:00.324Z,22.81
2023-05-05T16:10:26.558Z,22.90
2023-05-05T16:12:52.927Z,22.89
2023-05-05T16:15:19.176Z,22.76
2023-05-05T16:17:45.455Z,22.79
2023-05-05T16:20:11.742Z,22.79
2023-05-05T16:22:38.051Z,22.70
2023-05-05T16:25:08.641Z,21.72
2023-05-05T16:27:35.113Z,21.55
2023-05-05T16:30:01.366Z,20.97
2023-05-05T16:32:27.629Z,20.49
2023-05-05T16:34:53.890Z,20.12
2023-05-05T16:37:20.187Z,19.92
2023-05-05T16:39:46.445Z,20.15
2023-05-05T16:42:12.760Z,20.54
2023-05-05T16:44:39.024Z,20.77
2023-05-05T16:47:05.278Z,20.78
2023-05-05T16:49:31.563Z,20.75
2023-05-05T16:51:57.874Z,20.83
2023-05-05T16:54:24.277Z,20.99
2023-05-05T16:56:50.537Z,21.03
2023-05-05T16:59:16.775Z,20.95
2023-05-05T17:01:43.021Z,20.83
2023-05-05T17:04:09.308Z,20.84
2023-05-05T17:06:35.593Z,20.93
2023-05-05T17:09:01.836Z,21.05
2023-05-05T17:11:28.105Z,21.11
2023-05-05T17:13:54.360Z,21.28
2023-05-05T17:16:20.659Z,21.35
2023-05-05T17:18:46.936Z,21.23
2023-05-05T17:21:13.423Z,21.08
2023-05-05T17:23:39.669Z,21.03
2023-05-05T17:26:05.927Z,21.02
2023-05-05T17:28:32.160Z,20.97
2023-05-05T17:30:58.393Z,20.74
2023-05-05T17:33:24.674Z,20.73
2023-05-05T17:35:51.008Z,20.43
2023-05-05T17:38:17.235Z,20.15
2023-05-05T17:40:43.476Z,19.93
2023-05-05T17:43:09.718Z,19.79
2023-05-05T17:45:36.028Z,19.81
2023-05-05T17:48:02.352Z,19.54
2023-05-05T17:50:28.772Z,19.31
2023-05-05T17:52:55.009Z,19.35
2023-05-05T17:55:21.313Z,19.49
2023-05-05T17:57:47.655Z,19.24
2023-05-05T18:00:13.968Z,19.18
2023-05-05T18:02:40.398Z,19.28
2023-05-05T18:05:06.979Z,19.33
2023-05-05T18:07:33.521Z,19.30
2023-05-05T18:09:59.770Z,19.23
2023-05-05T18:12:26.088Z,19.14
2023-05-05T18:14:52.345Z,18.86
2023-05-05T18:17:18.618Z,18.81
2023-05-05T18:19:46.630Z,18.75
2023-05-05T18:22:14.686Z,18.79
2023-05-05T18:24:40.943Z,18.45
2023-05-05T18:27:07.248Z,18.44
2023-05-05T18:29:33.544Z,18.41
2023-05-05T18:31:59.810Z,18.41
2023-05-05T18:34:26.097Z,18.42
2023-05-05T18:36:52.346Z,18.40
2023-05-05T18:39:18.621Z,18.27
2023-05-05T18:41:44.979Z,18.21
2023-05-05T18:44:11.251Z,18.03
2023-05-05T18:46:37.556Z,17.91
2023-05-05T18:49:03.948Z,17.75
2023-05-05T18:51:30.208Z,17.60
2023-05-05T18:53:56.441Z,17.46
2023-05-05T18:56:22.704Z,17.29
2023-05-05T18:58:48.974Z,17.10
2023-05-05T19:01:15.234Z,16.95
2023-05-05T19:03:41.565Z,16.86
2023-05-05T19:06:07.901Z,16.74
2023-05-05T19:08:34.144Z,16.71
2023-05-05T19:11:00.408Z,16.58
2023-05-05T19:13:26.697Z,16.59
2023-05-05T19:15:52.992Z,16.59
2023-05-05T19:18:19.262Z,16.50
2023-05-05T19:20:45.549Z,16.48
2023-05-05T19:23:11.837Z,16.45
2023-05-05T19:25:38.086Z,16.42
2023-05-05T19:28:04.356Z,16.33
2023-05-05T19:30:30.594Z,16.19
2023-05-05T19:32:56.905Z,16.06
2023-05-05T19:35:23.254Z,16.00
2023-05-05T19:37:49.516Z,15.73
2023-05-05T19:40:15.779Z,15.63
2023-05-05T19:42:42.032Z,15.65
2023-05-05T19:45:08.304Z,15.62
2023-05-05T19:47:34.560Z,15.60
2023-05-05T19:50:00.816Z,15.56
2023-05-05T19:52:27.105Z,15.53
2023-05-05T19:54:53.371Z,15.55
2023-05-05T19:57:19.707Z,15.61
2023-05-05T19:59:45.933Z,15.64
2023-05-05T20:02:12.240Z,15.71
2023-05-05T20:04:38.516Z,15.80
2023-05-05T20:07:04.775Z,15.81
2023-05-05T20:09:31.012Z,15.83
2023-05-05T20:11:57.278Z,15.82
2023-05-05T20:14:23.558Z,15.84
2023-05-05T20:16:49.839Z,15.86
2023-05-05T20:19:16.176Z,15.84
2023-05-05T20:21:42.423Z,15.86
2023-05-05T20:24:08.718Z,15.86
2023-05-05T20:26:34.972Z,15.87
2023-05-05T20:29:01.202Z,15.93
2023-05-05T20:31:27.508Z,15.92
2023-05-05T20:33:53.830Z,15.93
2023-05-05T20:36:20.073Z,15.92
2023-05-05T20:38:46.353Z,16.00
2023-05-05T20:41:12.602Z,16.04
2023-05-05T20:43:38.856Z,16.12
2023-05-05T20:46:05.228Z,16.16
2023-05-05T20:48:31.464Z,16.17
2023-05-05T20:50:57.777Z,16.14
2023-05-05T20:53:24.031Z,16.15
2023-05-05T20:55:50.283Z,16.20
2023-05-05T20:58:16.541Z,16.01
2023-05-05T21:00:42.842Z,16.01
2023-05-05T21:03:09.216Z,15.99
2023-05-05T21:05:35.528Z,16.01
2023-05-05T21:08:20.560Z,15.92
2023-05-05T21:11:05.581Z,15.53
2023-05-05T21:13:50.448Z,15.63
2023-05-05T21:16:16.745Z,15.67
2023-05-05T21:18:43.064Z,15.69
2023-05-05T21:21:09.315Z,15.66
2023-05-05T21:23:35.554Z,15.61
2023-05-05T21:26:01.824Z,15.61
2023-05-05T21:28:28.051Z,15.52
2023-05-05T21:31:19.861Z,15.46
2023-05-05T21:33:59.362Z,15.30
2023-05-05T21:36:44.360Z,15.27
2023-05-05T21:39:10.582Z,15.26
2023-05-05T21:41:55.255Z,15.24
2023-05-05T21:44:40.251Z,15.26
2023-05-05T21:47:25.234Z,15.20
2023-05-05T21:50:10.502Z,15.06
2023-05-05T21:52:55.434Z,15.11
2023-05-05T21:55:40.472Z,15.03
2023-05-05T21:58:25.127Z,15.01
2023-05-05T22:00:52.876Z,14.98
2023-05-05T22:03:19.238Z,14.93
2023-05-05T22:05:45.506Z,14.94
2023-05-05T22:08:11.728Z,14.91
2023-05-05T22:10:37.983Z,14.83
2023-05-05T22:13:04.416Z,14.90
2023-05-05T22:15:38.975Z,14.87
2023-05-05T22:18:11.985Z,14.88
2023-05-05T22:20:38.283Z,14.83
2023-05-05T22:23:04.568Z,14.84
2023-05-05T22:25:30.833Z,14.81
2023-05-05T22:27:57.073Z,14.81
2023-05-05T22:30:23.314Z,14.82
2023-05-05T22:32:49.594Z,14.86
2023-05-05T22:35:15.869Z,14.82
2023-05-05T22:37:42.124Z,14.78
2023-05-05T22:40:08.400Z,14.80
2023-05-05T22:42:34.643Z,14.75
2023-05-05T22:45:00.889Z,14.80
2023-05-05T22:47:27.267Z,14.64
2023-05-05T22:49:53.702Z,14.66
2023-05-05T22:52:20.062Z,14.66
2023-05-05T22:54:46.295Z,14.66
2023-05-05T22:57:12.577Z,14.75
2023-05-05T22:59:38.897Z,14.81
2023-05-05T23:02:05.144Z,14.82
2023-05-05T23:04:31.500Z,14.86
2023-05-05T23:06:57.816Z,14.85
2023-05-05T23:09:24.200Z,14.84
2023-05-05T23:11:50.482Z,14.81
2023-05-05T23:14:16.718Z,14.81
2023-05-05T23:16:43.019Z,14.68
2023-05-05T23:19:09.328Z,14.65
2023-05-05T23:21:45.494Z,14.66
2023-05-05T23:24:18.674Z,14.61
2023-05-05T23:26:44.918Z,14.56
2023-05-05T23:29:11.209Z,14.46
2023-05-05T23:31:37.461Z,14.42
2023-05-05T23:34:03.715Z,14.42
2023-05-05T23:36:30.040Z,14.38
2023-05-05T23:38:56.282Z,14.40
2023-05-05T23:41:22.588Z,14.39
2023-05-05T23:43:48.819Z,14.39
2023-05-05T23:46:15.190Z,14.36
2023-05-05T23:48:41.484Z,14.32
2023-05-05T23:51:07.751Z,14.45
2023-05-05T23:53:34.058Z,14.44
2023-05-05T23:56:00.362Z,14.48
2023-05-05T23:58:26.605Z,14.50
